Terminal Aerodrome Forecast
Issued by NWS Wilmington, OH

Current Version | Previous Version | Text Only | Print | Product List | Glossary Off
Versions: 1 2 3 4 5 6 7 8 9 10 11 12 13 14 15 16 17 18 19 20 21 22 23 24 25

529
FTUS41 KILN 171938 AAA
TAFDAY
TAF AMD
KDAY 171938Z 1720/1818 18008KT 1SM -SN BR OVC005
     FM172100 19007KT 5SM BR VCSH OVC006
     FM180000 23006KT 5SM BR VCSH OVC006
     FM180500 28008KT P6SM BKN012
     FM180900 29005KT P6SM SCT016
     FM181500 17004KT P6SM SCT250=

USA.gov is the U.S. government's official web portal to all federal, state and local government web resources and services.